createdAt,value
2024-02-27T06:57:53.216Z,1360.00
2024-02-27T06:58:54.277Z,1428.00
2024-02-27T06:59:54.381Z,1388.00
2024-02-27T07:00:54.541Z,1232.00
2024-02-27T07:01:54.526Z,1188.00
2024-02-27T07:02:54.641Z,1404.00
2024-02-27T07:03:54.780Z,1520.00
2024-02-27T07:04:54.808Z,1524.00
2024-02-27T07:05:55.075Z,1652.00
2024-02-27T07:06:55.061Z,1728.00
2024-02-27T07:07:55.040Z,1728.00
2024-02-27T07:08:55.126Z,1728.00
2024-02-27T07:09:55.214Z,1800.00
2024-02-27T07:10:55.317Z,1932.00
2024-02-27T07:11:55.362Z,2072.00
2024-02-27T07:12:55.424Z,2132.00
2024-02-27T07:13:55.613Z,2148.00
2024-02-27T07:14:55.597Z,2340.00
2024-02-27T07:15:55.736Z,2548.00
2024-02-27T07:16:55.776Z,2448.00
2024-02-27T07:17:55.894Z,2708.00
2024-02-27T07:18:56.132Z,2588.00
2024-02-27T07:19:56.021Z,2708.00
2024-02-27T07:20:56.075Z,2528.00
2024-02-27T07:21:56.181Z,2608.00
2024-02-27T07:22:56.228Z,2568.00
2024-02-27T07:23:56.373Z,2480.00
2024-02-27T07:24:56.420Z,2828.00
2024-02-27T07:25:56.530Z,2804.00
2024-02-27T07:26:56.639Z,2464.00
2024-02-27T07:27:56.700Z,2556.00
2024-02-27T07:28:56.756Z,2824.00
2024-02-27T07:29:56.833Z,2656.00
2024-02-27T07:30:56.899Z,2916.00
2024-02-27T07:31:56.963Z,3044.00
2024-02-27T07:32:57.075Z,2996.00
2024-02-27T07:33:57.198Z,3080.00
2024-02-27T07:34:57.260Z,3060.00
2024-02-27T07:35:57.284Z,3576.00
2024-02-27T07:36:57.336Z,3448.00
2024-02-27T07:37:57.453Z,3220.00
2024-02-27T07:38:57.573Z,3388.00
2024-02-27T07:39:57.636Z,3408.00
2024-02-27T07:40:57.694Z,3556.00
2024-02-27T07:41:57.790Z,4200.00
2024-02-27T07:42:57.845Z,3936.00
2024-02-27T07:43:57.979Z,3272.00
2024-02-27T07:44:58.114Z,3648.00
2024-02-27T07:45:58.110Z,3732.00
2024-02-27T07:46:58.181Z,3504.00
2024-02-27T07:47:58.384Z,3624.00
2024-02-27T07:48:58.466Z,3644.00
2024-02-27T07:49:58.486Z,3360.00
2024-02-27T07:50:58.565Z,3288.00
2024-02-27T07:51:58.720Z,3480.00
2024-02-27T07:52:58.714Z,3768.00
2024-02-27T07:53:58.844Z,3480.00
2024-02-27T07:54:58.919Z,3436.00
2024-02-27T07:55:58.986Z,3524.00
2024-02-27T07:56:59.069Z,3448.00
2024-02-27T07:57:59.111Z,3748.00
2024-02-27T07:58:59.173Z,3832.00
2024-02-27T08:00:00.656Z,4084.00
2024-02-27T08:00:59.451Z,3856.00
2024-02-27T08:01:59.486Z,3716.00
2024-02-27T08:02:59.660Z,3956.00
2024-02-27T08:03:59.784Z,3972.00
2024-02-27T08:04:59.804Z,4120.00
2024-02-27T08:05:59.983Z,4348.00
2024-02-27T08:07:00.060Z,4668.00
2024-02-27T08:08:00.071Z,4764.00
2024-02-27T08:09:00.076Z,4988.00
2024-02-27T08:10:00.226Z,4576.00
2024-02-27T08:11:00.274Z,4712.00
2024-02-27T08:12:00.386Z,5436.00
2024-02-27T08:13:00.453Z,5536.00
2024-02-27T08:14:00.503Z,5444.00
2024-02-27T08:15:00.665Z,5624.00
2024-02-27T08:16:00.692Z,5728.00
2024-02-27T08:17:00.736Z,5996.00
2024-02-27T08:18:00.989Z,5576.00
2024-02-27T08:19:01.085Z,5864.00
2024-02-27T08:20:00.965Z,6264.00
2024-02-27T08:21:01.222Z,6024.00
2024-02-27T08:22:01.157Z,5568.00
2024-02-27T08:23:01.209Z,5720.00
2024-02-27T08:24:01.316Z,6028.00
2024-02-27T08:25:01.387Z,6200.00
2024-02-27T08:26:01.448Z,6396.00
2024-02-27T08:27:04.659Z,6132.00
2024-02-27T08:28:01.757Z,5724.00
2024-02-27T08:29:01.694Z,6128.00
2024-02-27T08:30:01.836Z,6100.00
2024-02-27T08:31:02.025Z,6084.00
2024-02-27T08:32:02.002Z,6204.00
2024-02-27T08:33:02.314Z,5804.00
2024-02-27T08:34:02.320Z,5876.00
2024-02-27T08:35:02.409Z,6976.00
2024-02-27T08:36:02.390Z,7752.00
2024-02-27T08:37:02.433Z,7672.00
2024-02-27T08:38:02.524Z,6996.00
2024-02-27T08:39:02.615Z,6656.00
2024-02-27T08:40:02.679Z,6008.00
2024-02-27T08:41:02.781Z,5976.00
2024-02-27T08:42:02.880Z,6264.00
2024-02-27T08:43:02.923Z,6584.00
2024-02-27T08:44:03.012Z,7604.00
2024-02-27T08:45:03.163Z,7716.00
2024-02-27T08:46:03.223Z,6884.00
2024-02-27T08:47:03.301Z,6800.00
2024-02-27T08:48:03.486Z,6388.00
2024-02-27T08:49:03.576Z,6440.00
2024-02-27T08:50:03.530Z,6288.00
2024-02-27T08:51:03.613Z,6992.00
2024-02-27T08:52:05.040Z,6460.00
2024-02-27T08:53:03.811Z,5760.00
2024-02-27T08:54:03.955Z,6176.00
2024-02-27T08:55:03.933Z,6008.00
2024-02-27T08:56:04.050Z,5964.00
2024-02-27T08:57:04.126Z,6508.00
2024-02-27T08:58:04.179Z,7244.00
2024-02-27T08:59:04.239Z,7456.00
2024-02-27T09:00:04.394Z,7656.00
2024-02-27T09:01:04.530Z,8184.00
2024-02-27T09:02:04.511Z,8212.00
2024-02-27T09:03:06.240Z,8032.00
2024-02-27T09:04:04.816Z,8380.00
2024-02-27T09:05:04.735Z,8320.00
2024-02-27T09:06:04.925Z,8468.00
2024-02-27T09:07:04.985Z,9060.00
2024-02-27T09:08:04.993Z,10096.00
2024-02-27T09:09:06.885Z,10484.00
2024-02-27T09:10:05.152Z,9676.00
2024-02-27T09:11:05.282Z,8736.00
2024-02-27T09:12:05.320Z,10344.00
2024-02-27T09:13:06.313Z,10640.00
2024-02-27T09:14:05.457Z,10288.00
2024-02-27T09:15:08.593Z,9160.00
2024-02-27T09:16:05.660Z,9516.00
2024-02-27T09:17:05.736Z,9772.00
2024-02-27T09:18:05.891Z,9472.00
2024-02-27T09:19:05.965Z,9472.00
2024-02-27T09:20:05.969Z,10156.00
2024-02-27T09:21:06.089Z,13196.00
2024-02-27T09:22:06.174Z,13768.00
2024-02-27T09:23:06.213Z,12836.00
2024-02-27T09:24:06.342Z,11732.00
2024-02-27T09:25:06.344Z,12008.00
2024-02-27T09:26:06.443Z,12492.00
2024-02-27T09:27:06.556Z,12492.00
2024-02-27T09:28:06.680Z,10936.00
2024-02-27T09:29:06.653Z,10060.00
2024-02-27T09:30:06.784Z,9300.00
2024-02-27T09:31:10.121Z,9644.00
2024-02-27T09:32:06.943Z,9708.00
2024-02-27T09:33:07.061Z,10004.00
2024-02-27T09:34:07.111Z,9824.00
2024-02-27T09:35:07.180Z,10492.00
2024-02-27T09:36:07.300Z,10680.00
2024-02-27T09:37:07.367Z,10696.00
2024-02-27T09:38:07.399Z,11764.00
2024-02-27T09:39:07.495Z,13100.00
2024-02-27T09:40:07.615Z,13564.00
2024-02-27T09:41:07.650Z,14208.00
2024-02-27T09:42:07.779Z,15004.00
2024-02-27T09:43:07.828Z,14036.00
2024-02-27T09:44:07.878Z,14492.00
2024-02-27T09:45:08.447Z,12652.00
2024-02-27T09:46:08.053Z,11480.00
2024-02-27T09:47:08.240Z,11016.00
2024-02-27T09:48:08.315Z,9792.00
2024-02-27T09:49:08.386Z,9568.00
2024-02-27T09:50:08.530Z,10120.00
2024-02-27T09:51:08.603Z,10144.00
2024-02-27T09:52:08.592Z,10268.00
2024-02-27T09:53:08.680Z,10116.00
2024-02-27T09:54:08.812Z,10008.00
2024-02-27T09:55:08.880Z,9964.00
2024-02-27T09:56:09.006Z,9564.00
2024-02-27T09:57:09.037Z,9144.00
2024-02-27T09:58:09.429Z,8968.00
2024-02-27T09:59:09.209Z,8500.00
2024-02-27T10:00:09.321Z,8248.00
2024-02-27T10:01:09.482Z,8020.00
2024-02-27T10:02:09.619Z,8348.00
2024-02-27T10:03:09.587Z,8576.00
2024-02-27T10:04:09.731Z,8484.00
2024-02-27T10:05:09.753Z,8900.00
2024-02-27T10:06:09.783Z,9460.00
2024-02-27T10:07:09.812Z,10876.00
2024-02-27T10:08:09.883Z,12412.00
2024-02-27T10:09:10.011Z,12264.00
2024-02-27T10:10:10.031Z,11536.00
2024-02-27T10:11:10.131Z,11012.00
2024-02-27T10:12:10.200Z,10964.00
2024-02-27T10:13:10.249Z,9944.00
2024-02-27T10:14:10.489Z,9520.00
2024-02-27T10:15:11.419Z,9548.00
2024-02-27T10:16:10.460Z,9128.00
2024-02-27T10:17:10.529Z,9124.00
2024-02-27T10:18:10.719Z,9640.00
2024-02-27T10:19:10.834Z,10272.00
2024-02-27T10:20:10.867Z,10024.00
2024-02-27T10:21:10.909Z,9136.00
2024-02-27T10:22:10.935Z,8908.00
2024-02-27T10:23:11.014Z,9112.00
2024-02-27T10:24:11.114Z,9228.00
2024-02-27T10:25:11.162Z,9088.00
2024-02-27T10:26:11.232Z,9344.00
2024-02-27T10:27:11.349Z,9172.00
2024-02-27T10:28:11.353Z,9140.00
2024-02-27T10:29:11.437Z,9512.00
2024-02-27T10:30:11.554Z,9992.00
2024-02-27T10:31:11.621Z,10204.00
2024-02-27T10:32:11.657Z,10364.00
2024-02-27T10:33:11.859Z,10444.00
2024-02-27T10:34:11.905Z,10820.00
2024-02-27T10:35:12.339Z,12184.00
2024-02-27T10:36:12.073Z,15936.00
2024-02-27T10:37:12.216Z,17664.00
2024-02-27T10:38:12.110Z,14572.00
2024-02-27T10:39:12.181Z,12588.00
2024-02-27T10:40:12.236Z,12612.00
2024-02-27T10:41:12.336Z,12864.00
2024-02-27T10:42:12.468Z,12560.00
2024-02-27T10:43:12.492Z,13888.00
2024-02-27T10:44:14.641Z,14388.00
2024-02-27T10:45:13.073Z,14592.00
2024-02-27T10:46:13.950Z,14668.00
2024-02-27T10:47:12.826Z,14620.00
2024-02-27T10:48:12.929Z,14476.00
2024-02-27T10:49:14.163Z,14340.00
2024-02-27T10:50:13.219Z,14824.00
2024-02-27T10:51:13.174Z,16320.00
2024-02-27T10:52:13.197Z,15544.00
2024-02-27T10:53:13.274Z,14272.00
2024-02-27T10:54:13.385Z,13396.00
2024-02-27T10:55:13.461Z,12444.00
2024-02-27T10:56:13.565Z,11268.00
2024-02-27T10:57:13.640Z,10400.00
2024-02-27T10:58:13.667Z,9612.00
2024-02-27T10:59:13.870Z,9460.00
2024-02-27T11:00:13.894Z,10024.00
2024-02-27T11:01:14.118Z,10720.00
2024-02-27T11:02:14.034Z,11560.00
2024-02-27T11:03:14.139Z,12448.00
2024-02-27T11:04:14.157Z,12928.00
2024-02-27T11:05:14.323Z,13132.00
2024-02-27T11:06:14.396Z,12852.00
2024-02-27T11:07:14.463Z,12368.00
2024-02-27T11:08:14.479Z,11728.00
2024-02-27T11:09:14.587Z,11748.00
2024-02-27T11:10:14.644Z,12416.00
2024-02-27T11:11:15.155Z,13152.00
2024-02-27T11:12:15.113Z,14020.00
2024-02-27T11:13:14.886Z,15272.00
2024-02-27T11:14:14.959Z,16672.00
2024-02-27T11:15:15.093Z,16576.00
2024-02-27T11:16:15.148Z,18848.00
2024-02-27T11:17:15.413Z,20800.00
2024-02-27T11:18:15.388Z,19968.00
2024-02-27T11:19:15.503Z,16896.00
2024-02-27T11:20:15.605Z,16128.00
2024-02-27T11:21:15.552Z,16128.00
2024-02-27T11:22:15.607Z,17120.00
2024-02-27T11:23:15.697Z,18880.00
2024-02-27T11:24:15.835Z,19712.00
2024-02-27T11:25:15.852Z,20576.00
2024-02-27T11:26:15.950Z,21728.00
2024-02-27T11:27:16.054Z,19968.00
2024-02-27T11:28:16.083Z,17984.00
2024-02-27T11:29:16.165Z,16288.00
2024-02-27T11:30:16.283Z,15304.00
2024-02-27T11:31:16.323Z,15608.00
2024-02-27T11:32:16.411Z,17024.00
2024-02-27T11:33:16.569Z,17856.00
2024-02-27T11:34:16.632Z,17952.00
2024-02-27T11:35:16.652Z,18336.00
2024-02-27T11:36:16.729Z,19168.00
2024-02-27T11:37:16.767Z,19648.00
2024-02-27T11:38:16.848Z,18560.00
2024-02-27T11:39:17.023Z,18080.00
2024-02-27T11:40:17.006Z,18304.00
2024-02-27T11:41:17.061Z,18368.00
2024-02-27T11:42:17.183Z,18624.00
2024-02-27T11:43:17.336Z,18400.00
2024-02-27T11:44:17.312Z,18272.00
2024-02-27T11:45:17.452Z,18880.00
2024-02-27T11:46:17.437Z,19776.00
2024-02-27T11:47:17.507Z,19296.00
2024-02-27T11:48:17.648Z,18784.00
2024-02-27T11:49:17.755Z,19296.00
2024-02-27T11:50:18.726Z,19360.00
2024-02-27T11:51:17.969Z,18176.00
2024-02-27T11:52:17.950Z,18528.00
2024-02-27T11:53:18.169Z,17504.00
2024-02-27T11:54:18.132Z,15780.00
2024-02-27T11:55:18.197Z,15148.00
2024-02-27T11:56:18.280Z,16000.00
2024-02-27T11:57:18.386Z,17312.00
2024-02-27T11:58:18.411Z,19200.00
2024-02-27T11:59:18.514Z,20192.00
2024-02-27T12:00:18.604Z,18272.00
2024-02-27T12:01:18.650Z,17056.00
2024-02-27T12:02:18.728Z,17664.00
2024-02-27T12:03:18.833Z,18720.00
2024-02-27T12:04:18.933Z,18432.00
2024-02-27T12:05:18.971Z,18912.00
2024-02-27T12:06:19.270Z,19008.00
2024-02-27T12:07:19.140Z,16416.00
2024-02-27T12:08:19.283Z,13096.00
2024-02-27T12:09:19.353Z,13044.00
2024-02-27T12:10:19.372Z,16832.00
2024-02-27T12:11:19.464Z,18784.00
2024-02-27T12:12:19.623Z,19552.00
2024-02-27T12:13:19.638Z,20352.00
2024-02-27T12:14:19.728Z,20608.00
2024-02-27T12:15:19.808Z,18368.00
2024-02-27T12:16:19.864Z,17088.00
2024-02-27T12:17:19.958Z,15556.00
2024-02-27T12:18:20.133Z,15136.00
2024-02-27T12:19:20.156Z,15456.00
2024-02-27T12:20:20.186Z,15884.00
2024-02-27T12:21:20.257Z,16992.00
2024-02-27T12:22:20.330Z,19552.00
2024-02-27T12:23:20.383Z,23232.00
2024-02-27T12:24:20.711Z,22336.00
2024-02-27T12:25:20.593Z,20896.00
2024-02-27T12:26:20.670Z,21088.00
2024-02-27T12:27:20.790Z,20192.00
2024-02-27T12:28:20.862Z,17856.00
2024-02-27T12:29:20.929Z,16320.00
2024-02-27T12:30:22.702Z,17440.00
2024-02-27T12:31:21.089Z,19616.00
2024-02-27T12:32:21.158Z,21408.00
2024-02-27T12:33:21.298Z,21472.00
2024-02-27T12:34:21.348Z,19904.00
2024-02-27T12:35:21.363Z,17984.00
2024-02-27T12:36:21.468Z,17600.00
2024-02-27T12:37:21.532Z,16512.00
2024-02-27T12:38:21.595Z,15528.00
2024-02-27T12:39:21.702Z,14672.00
2024-02-27T12:40:21.761Z,14628.00
2024-02-27T12:41:21.837Z,16416.00
2024-02-27T12:42:21.993Z,18368.00
2024-02-27T12:43:21.992Z,19424.00
2024-02-27T12:44:22.106Z,19328.00
2024-02-27T12:45:22.192Z,18560.00
2024-02-27T12:46:25.342Z,18048.00
2024-02-27T12:47:22.440Z,17152.00
2024-02-27T12:48:22.749Z,16544.00
2024-02-27T12:49:22.608Z,15728.00
2024-02-27T12:50:22.561Z,14876.00
2024-02-27T12:51:22.688Z,13588.00
2024-02-27T12:52:22.744Z,12308.00
2024-02-27T12:53:22.966Z,11616.00
2024-02-27T12:54:23.105Z,11876.00
2024-02-27T12:55:22.978Z,12700.00
2024-02-27T12:56:23.029Z,13100.00
2024-02-27T12:57:23.205Z,12472.00
2024-02-27T12:58:23.226Z,11184.00
2024-02-27T12:59:23.294Z,10376.00
2024-02-27T13:00:23.431Z,10124.00
2024-02-27T13:01:23.497Z,10060.00
2024-02-27T13:02:23.556Z,10148.00
2024-02-27T13:03:24.313Z,10168.00
2024-02-27T13:04:23.716Z,9712.00
2024-02-27T13:05:23.798Z,9200.00
2024-02-27T13:06:24.035Z,8944.00
2024-02-27T13:07:24.097Z,9168.00
2024-02-27T13:08:24.017Z,9720.00
2024-02-27T13:09:24.143Z,10524.00
2024-02-27T13:10:24.319Z,11128.00
2024-02-27T13:11:24.348Z,12004.00
2024-02-27T13:12:24.399Z,13980.00
2024-02-27T13:13:24.477Z,16608.00
2024-02-27T13:14:24.532Z,18656.00
2024-02-27T13:15:24.614Z,20352.00
2024-02-27T13:16:24.984Z,21216.00
2024-02-27T13:17:24.810Z,21312.00
2024-02-27T13:18:25.031Z,19936.00
2024-02-27T13:19:25.054Z,17344.00
2024-02-27T13:20:25.052Z,15248.00
2024-02-27T13:21:25.163Z,14148.00
2024-02-27T13:22:25.239Z,13968.00
2024-02-27T13:23:26.934Z,13812.00
2024-02-27T13:24:25.438Z,13816.00
2024-02-27T13:25:25.492Z,13964.00
2024-02-27T13:26:25.589Z,13540.00
2024-02-27T13:27:25.698Z,13264.00
2024-02-27T13:28:25.735Z,14368.00
2024-02-27T13:29:25.846Z,16800.00
2024-02-27T13:30:25.943Z,18496.00
2024-02-27T13:31:25.966Z,19360.00
2024-02-27T13:32:26.127Z,20064.00
2024-02-27T13:33:26.563Z,20800.00
2024-02-27T13:34:26.323Z,20352.00
2024-02-27T13:35:26.421Z,18528.00
2024-02-27T13:36:26.411Z,17536.00
2024-02-27T13:37:26.490Z,17824.00
2024-02-27T13:38:26.601Z,18432.00
2024-02-27T13:39:26.748Z,18592.00
2024-02-27T13:40:26.771Z,18112.00
2024-02-27T13:41:26.859Z,17504.00
2024-02-27T13:42:26.942Z,17024.00
2024-02-27T13:43:27.045Z,16736.00
2024-02-27T13:44:27.114Z,16448.00
2024-02-27T13:45:27.236Z,15764.00
2024-02-27T13:46:27.286Z,14924.00
2024-02-27T13:47:27.400Z,14356.00
2024-02-27T13:48:27.543Z,13404.00
2024-02-27T13:49:27.565Z,12976.00
2024-02-27T13:50:27.643Z,12688.00
2024-02-27T13:51:27.784Z,12384.00
2024-02-27T13:52:27.798Z,11816.00
2024-02-27T13:53:27.900Z,10520.00
2024-02-27T13:54:27.990Z,9736.00
2024-02-27T13:55:28.049Z,9200.00
2024-02-27T13:56:28.161Z,8820.00
2024-02-27T13:57:28.276Z,8572.00
2024-02-27T13:58:28.891Z,8304.00
2024-02-27T13:59:28.457Z,8368.00
2024-02-27T14:00:28.552Z,8676.00
2024-02-27T14:01:28.665Z,9348.00
2024-02-27T14:02:28.684Z,11040.00
2024-02-27T14:03:28.849Z,17600.00
2024-02-27T14:04:30.324Z,21376.00
2024-02-27T14:05:29.041Z,18624.00
2024-02-27T14:06:29.088Z,19136.00
2024-02-27T14:07:29.192Z,18464.00
2024-02-27T14:08:29.198Z,17888.00
2024-02-27T14:09:29.343Z,20224.00
2024-02-27T14:10:29.413Z,20896.00
2024-02-27T14:11:29.526Z,20320.00
2024-02-27T14:12:29.602Z,23712.00
2024-02-27T14:13:29.617Z,28320.00
2024-02-27T14:14:29.694Z,29856.00
2024-02-27T14:15:29.853Z,27936.00
2024-02-27T14:16:29.860Z,27104.00
2024-02-27T14:17:29.962Z,28800.00
2024-02-27T14:18:30.119Z,26944.00
2024-02-27T14:19:30.243Z,25728.00
2024-02-27T14:20:30.219Z,27200.00
2024-02-27T14:21:30.324Z,26016.00
2024-02-27T14:22:30.383Z,27168.00
2024-02-27T14:23:30.447Z,27296.00
2024-02-27T14:24:30.535Z,27872.00
2024-02-27T14:25:30.614Z,27488.00
2024-02-27T14:26:30.669Z,24928.00
2024-02-27T14:27:30.737Z,26272.00
2024-02-27T14:28:30.816Z,26432.00
2024-02-27T14:29:30.893Z,25344.00
2024-02-27T14:30:31.010Z,22912.00
2024-02-27T14:31:31.058Z,21248.00
2024-02-27T14:32:31.193Z,17408.00
2024-02-27T14:33:31.326Z,13164.00
2024-02-27T14:34:31.486Z,9972.00
2024-02-27T14:35:31.532Z,9940.00
2024-02-27T14:36:31.533Z,9744.00
2024-02-27T14:37:31.594Z,9096.00
2024-02-27T14:38:31.667Z,9492.00
2024-02-27T14:39:31.834Z,9916.00
2024-02-27T14:40:31.830Z,10736.00
2024-02-27T14:41:31.897Z,10828.00
2024-02-27T14:42:32.038Z,10644.00
2024-02-27T14:43:32.058Z,8876.00
2024-02-27T14:44:32.168Z,8984.00
2024-02-27T14:45:32.304Z,8868.00
2024-02-27T14:46:32.315Z,9320.00
2024-02-27T14:47:32.435Z,9596.00
2024-02-27T14:48:32.545Z,9160.00
2024-02-27T14:49:32.670Z,8296.00
2024-02-27T14:50:32.706Z,7480.00
2024-02-27T14:51:32.838Z,7360.00
2024-02-27T14:52:32.878Z,6952.00
2024-02-27T14:53:32.921Z,6516.00
2024-02-27T14:54:33.053Z,6300.00
2024-02-27T14:55:33.125Z,6240.00
2024-02-27T14:56:33.191Z,6156.00
2024-02-27T14:57:33.300Z,6084.00
2024-02-27T14:58:33.373Z,6160.00
2024-02-27T14:59:33.404Z,6464.00
2024-02-27T15:00:33.621Z,6276.00
2024-02-27T15:01:36.581Z,6024.00
2024-02-27T15:02:33.668Z,5956.00
2024-02-27T15:03:33.790Z,5692.00
2024-02-27T15:04:33.842Z,5592.00
2024-02-27T15:05:33.967Z,5520.00
2024-02-27T15:06:34.024Z,5396.00
2024-02-27T15:07:34.103Z,5512.00
2024-02-27T15:08:34.120Z,6280.00
2024-02-27T15:09:34.234Z,6032.00
2024-02-27T15:10:34.269Z,5344.00
2024-02-27T15:11:34.371Z,5208.00
2024-02-27T15:12:34.435Z,5052.00
2024-02-27T15:13:34.491Z,4964.00
2024-02-27T15:14:34.546Z,5028.00
2024-02-27T15:15:34.745Z,5052.00
2024-02-27T15:16:34.732Z,6260.00
2024-02-27T15:17:34.848Z,8448.00
2024-02-27T15:18:35.031Z,8260.00
2024-02-27T15:19:35.250Z,7020.00
2024-02-27T15:20:35.085Z,6140.00
2024-02-27T15:21:35.218Z,5232.00
2024-02-27T15:22:35.249Z,6008.00
2024-02-27T15:23:35.345Z,7620.00
2024-02-27T15:24:35.425Z,7520.00
2024-02-27T15:25:35.492Z,8236.00
2024-02-27T15:26:35.597Z,7096.00
2024-02-27T15:27:35.714Z,6400.00
2024-02-27T15:28:35.807Z,7048.00
2024-02-27T15:29:35.859Z,6600.00
2024-02-27T15:30:36.019Z,6620.00
2024-02-27T15:31:36.008Z,6392.00
2024-02-27T15:32:36.107Z,5912.00
2024-02-27T15:33:36.222Z,5584.00
2024-02-27T15:34:36.490Z,4728.00
2024-02-27T15:35:36.849Z,4448.00
2024-02-27T15:36:36.465Z,4372.00
2024-02-27T15:37:36.495Z,4368.00
2024-02-27T15:38:36.611Z,4408.00
2024-02-27T15:39:36.767Z,5256.00
2024-02-27T15:40:36.784Z,6816.00
2024-02-27T15:41:36.850Z,6248.00
2024-02-27T15:42:36.984Z,5872.00
2024-02-27T15:43:36.970Z,6792.00
2024-02-27T15:44:37.081Z,7460.00
2024-02-27T15:45:37.189Z,6676.00
2024-02-27T15:46:37.212Z,5388.00
2024-02-27T15:47:37.326Z,4688.00
2024-02-27T15:48:37.638Z,4564.00
2024-02-27T15:49:37.725Z,4280.00
2024-02-27T15:50:37.571Z,4024.00
2024-02-27T15:51:37.667Z,3944.00
2024-02-27T15:52:37.726Z,3908.00
2024-02-27T15:53:37.791Z,4000.00
2024-02-27T15:54:37.959Z,4224.00
2024-02-27T15:55:37.937Z,4596.00
2024-02-27T15:56:38.039Z,4740.00
2024-02-27T15:57:38.132Z,4616.00
2024-02-27T15:58:38.214Z,4488.00
2024-02-27T15:59:38.260Z,4440.00
2024-02-27T16:00:38.420Z,4448.00
2024-02-27T16:01:38.502Z,4520.00
2024-02-27T16:02:38.522Z,4508.00
2024-02-27T16:03:38.798Z,4464.00
2024-02-27T16:04:38.810Z,4332.00
2024-02-27T16:05:38.837Z,3708.00
2024-02-27T16:06:38.968Z,3168.00
2024-02-27T16:07:38.973Z,3008.00
2024-02-27T16:08:39.046Z,2944.00
2024-02-27T16:09:39.221Z,2944.00
2024-02-27T16:10:39.202Z,2928.00
2024-02-27T16:11:39.277Z,2840.00
2024-02-27T16:12:40.235Z,2776.00
2024-02-27T16:13:39.429Z,2724.00
2024-02-27T16:14:39.548Z,2680.00
2024-02-27T16:15:39.663Z,2660.00
2024-02-27T16:16:39.683Z,2704.00
2024-02-27T16:17:39.762Z,2784.00
2024-02-27T16:18:39.945Z,2944.00
2024-02-27T16:19:40.156Z,3040.00
2024-02-27T16:20:39.977Z,2876.00
2024-02-27T16:21:40.070Z,2652.00
2024-02-27T16:22:40.135Z,2524.00
2024-02-27T16:23:40.208Z,2436.00
2024-02-27T16:24:40.369Z,2332.00
2024-02-27T16:25:40.382Z,2204.00
2024-02-27T16:26:40.450Z,2084.00
2024-02-27T16:27:40.546Z,1984.00
2024-02-27T16:28:40.664Z,1908.00
2024-02-27T16:29:40.706Z,1848.00
2024-02-27T16:30:40.826Z,1792.00
2024-02-27T16:31:40.852Z,1732.00
2024-02-27T16:32:41.000Z,1684.00
2024-02-27T16:33:41.209Z,1628.00
2024-02-27T16:34:41.296Z,1576.00
2024-02-27T16:35:41.189Z,1516.00
2024-02-27T16:36:41.321Z,1460.00
2024-02-27T16:37:41.386Z,1404.00
2024-02-27T16:38:41.469Z,1352.00
2024-02-27T16:39:41.593Z,1296.00
2024-02-27T16:40:41.635Z,1244.00
2024-02-27T16:41:44.072Z,1188.00
2024-02-27T16:42:41.788Z,1124.00
2024-02-27T16:43:41.841Z,1052.00
2024-02-27T16:44:41.921Z,984.00
2024-02-27T16:45:42.043Z,924.00
2024-02-27T16:46:42.044Z,864.00
2024-02-27T16:47:42.144Z,816.00
2024-02-27T16:48:42.270Z,772.00
2024-02-27T16:49:42.455Z,732.00
2024-02-27T16:50:42.385Z,692.00
2024-02-27T16:51:42.599Z,652.00
2024-02-27T16:52:42.559Z,600.00
2024-02-27T16:53:42.613Z,548.00
2024-02-27T16:54:42.799Z,500.00
2024-02-27T16:55:42.829Z,464.00
2024-02-27T16:56:42.930Z,428.00
